Share

Mount Sterling, KY

Old Fogg Pike (KKYMOUNT6) Elev 1032 ft | 38.03 °N, 83.97 °W | Change Station
Active Advisory: Special Statement

Current weather conditions updated 2 seconds ago

Clear
Clear
70.6 °F
Feels Like 77 °F
N
1.0
Wind Variable Wind from NW
Gusts 1.0 mph
Sunrise 6:53 AM
Sunset 8:16 PM
Moon Waning Gibbous

Tomorrow is forecast to be nearly the same temperature as today. Light rain late tomorrow night.

Pressure 30.13 in
Visibility 10.0 miles
Clouds Clear
Heat Index 77 °F
Dew Point 47 °F
Humidity 43%
Rainfall 0.00 in
Snow Depth Not available.
UV 1 out of 16
Pollen 10.60 out of 12
Air Quality Not available.
Flu Activity Sporadic
METAR KLEX 202254Z 00000KT 10SM CLR 24/03 A3013

More Conditions Fewer Conditions

Pressure 30.13 in
Visibility 10.0 miles
Clouds Clear
Heat Index 77 °F
Dew Point 47 °F
Humidity 43%
Rainfall 0.00 in
Snow Depth Not available.
UV 1 out of 16
Pollen 10.60 out of 12
Air Quality Not available.
Flu Activity Sporadic
METAR KLEX 202254Z 00000KT 10SM CLR 24/03 A3013

More Conditions Fewer Conditions

10-Day Weather Forecast

Almanac

Astronomy

Apr. 20, 2014 Rise Set
Actual Time 6:53 AM EDT 8:16 PM EDT
Civil Twilight 6:25 AM EDT 8:44 PM EDT
Nautical Twilight 5:52 AM EDT 9:17 PM EDT
Astronomical Twilight 5:18 AM EDT 9:51 PM EDT
Moon 12:53 AM EDT 11:14 AM EDT
Length of Visible Light 14h 18m
Length of Day
13h 23m
Tomorrow will be 2m 17s longer.
Waning Gibbous, 65% of the Moon is Illuminated
Today
Waning Gibbous
Apr 22
Last Quarter
Apr 29
New
May 6
First Quarter
May 14
Full

Today's Extremes

State Highs State Lows

Community

  • Easter Dance
    Easter Dance
  • spring skiing mount Baker WA
    spring skiing mount Baker WA
  • Morning Sun
    Morning Sun
  • Happy Easter
    Happy Easter
  • after rain
    after rain

WunderPhotos

Upload Photos

1,703,438 photos uploaded!

WunderBlogs® & News

Nearby

Snow Depth

Station Depth Elevation
No new snow has been reported.

Coastal Water Temperatures

Place Temperature
No Stations Reporting

Earthquake Activity

City Distance Mag. Time & Date
No recent earthquake activity has been reported nearby.
Minimum magnitude displayed is 2.5.

Nearby Weather Stations

Station Location Temp. Heat Index Dew Point Humidity Wind Precip. Elev Updated Type
Old Fogg Pike, Mount Sterling, KY 70.6 °F 77 °F 47 °F 43% NW  at  1.0 mph 0.00 in / hr 1032 ft 7:40 PM EDT Rapid Fire
Ridge Road Jet Center, Owingsville, KY 70.7 °F 77 °F 48 °F 45% WNW  at  3.7 mph - / hr 899 ft 7:39 PM EDT Normal
Ruckerville, Winchester, KY 71.9 °F 77 °F 47 °F 41% East  at  0.0 mph 0.00 in / hr 1007 ft 7:35 PM EDT Normal
SLOAN, Irvine, KY 73.6 °F 77 °F 46 °F 37% NW  at  2.2 mph - / hr 791 ft 7:31 PM EDT Normal
KYTC_RWIS I-64 @ KY-801 (Farmers), Farmers, KY 77 °F 77 °F 30 °F 18% South  at  2 mph 0.00 in / hr 933 ft 6:45 PM EDT MADIS

Show More Stations Show Fewer Stations

What do you think?

We're not finished. Please let us know what you like, what you don't like, and what you are still missing.